createdAt,value
2023-10-07T00:01:05.808Z,7.99
2023-10-07T00:03:35.532Z,7.96
2023-10-07T00:06:04.863Z,8.00
2023-10-07T00:08:35.909Z,8.00
2023-10-07T00:11:12.690Z,7.95
2023-10-07T00:13:44.653Z,7.93
2023-10-07T00:16:18.687Z,7.91
2023-10-07T00:18:48.778Z,7.92
2023-10-07T00:21:29.182Z,7.90
2023-10-07T00:24:00.073Z,7.89
2023-10-07T00:26:30.552Z,7.87
2023-10-07T00:29:03.347Z,7.88
2023-10-07T00:31:36.176Z,7.90
2023-10-07T00:34:23.674Z,7.89
2023-10-07T00:36:57.783Z,7.83
2023-10-07T00:39:32.736Z,7.82
2023-10-07T00:42:08.560Z,7.81
2023-10-07T00:44:38.939Z,7.81
2023-10-07T00:47:08.227Z,7.80
2023-10-07T00:49:48.312Z,7.80
2023-10-07T00:52:31.207Z,7.77
2023-10-07T00:55:10.562Z,7.74
2023-10-07T00:57:48.860Z,7.73
2023-10-07T01:00:23.440Z,7.69
2023-10-07T01:03:26.616Z,7.70
2023-10-07T01:06:00.250Z,7.64
2023-10-07T01:08:45.796Z,7.64
2023-10-07T01:11:20.325Z,7.65
2023-10-07T01:13:52.942Z,7.67
2023-10-07T01:16:34.843Z,7.63
2023-10-07T01:19:20.353Z,7.62
2023-10-07T01:21:56.533Z,7.60
2023-10-07T01:24:44.874Z,7.62
2023-10-07T01:27:28.497Z,7.61
2023-10-07T01:30:17.759Z,7.61
2023-10-07T01:32:54.774Z,7.59
2023-10-07T01:35:27.224Z,7.58
2023-10-07T01:38:09.357Z,7.60
2023-10-07T01:40:51.431Z,7.56
2023-10-07T01:43:20.791Z,7.56
2023-10-07T01:45:53.972Z,7.53
2023-10-07T01:48:23.354Z,7.56
2023-10-07T01:50:53.168Z,7.58
2023-10-07T01:53:22.350Z,7.58
2023-10-07T01:55:52.567Z,7.54
2023-10-07T01:58:23.984Z,7.51
2023-10-07T02:00:58.413Z,7.46
2023-10-07T02:03:27.754Z,7.41
2023-10-07T02:05:56.962Z,7.37
2023-10-07T02:08:26.889Z,7.39
2023-10-07T02:10:58.784Z,7.36
2023-10-07T02:13:31.798Z,7.37
2023-10-07T02:16:07.867Z,7.34
2023-10-07T02:18:38.122Z,7.28
2023-10-07T02:21:08.517Z,7.19
2023-10-07T02:23:42.063Z,7.18
2023-10-07T02:26:21.316Z,7.17
2023-10-07T02:28:53.686Z,7.12
2023-10-07T02:31:25.655Z,7.13
2023-10-07T02:33:58.835Z,7.11
2023-10-07T02:36:30.829Z,7.10
2023-10-07T02:39:06.044Z,7.09
2023-10-07T02:41:35.445Z,7.06
2023-10-07T02:44:06.494Z,7.05
2023-10-07T02:46:36.123Z,7.04
2023-10-07T02:49:11.883Z,7.00
2023-10-07T02:51:46.054Z,6.98
2023-10-07T02:54:19.678Z,6.94
2023-10-07T02:56:56.741Z,6.92
2023-10-07T02:59:31.461Z,6.93
2023-10-07T03:02:16.011Z,6.92
2023-10-07T03:05:08.095Z,6.90
2023-10-07T03:07:42.807Z,6.90
2023-10-07T03:10:18.680Z,6.88
2023-10-07T03:12:58.123Z,6.85
2023-10-07T03:15:41.298Z,6.85
2023-10-07T03:18:23.157Z,6.86
2023-10-07T03:21:07.621Z,6.81
2023-10-07T03:23:39.699Z,6.76
2023-10-07T03:26:09.905Z,6.75
2023-10-07T03:28:48.658Z,6.75
2023-10-07T03:31:21.230Z,6.74
2023-10-07T03:33:52.433Z,6.72
2023-10-07T03:36:23.395Z,6.71
2023-10-07T03:38:58.879Z,6.69
2023-10-07T03:41:34.924Z,6.67
2023-10-07T03:44:05.358Z,6.68
2023-10-07T03:46:36.673Z,6.67
2023-10-07T03:49:08.129Z,6.71
2023-10-07T03:51:37.412Z,6.70
2023-10-07T03:54:16.993Z,6.73
2023-10-07T03:56:50.642Z,6.74
2023-10-07T03:59:19.992Z,6.75
2023-10-07T04:01:54.729Z,6.76
2023-10-07T04:04:25.827Z,6.77
2023-10-07T04:06:55.082Z,6.75
2023-10-07T04:09:34.593Z,6.74
2023-10-07T04:12:04.529Z,6.73
2023-10-07T04:14:36.712Z,6.75
2023-10-07T04:17:13.655Z,6.81
2023-10-07T04:19:43.679Z,6.87
2023-10-07T04:22:12.964Z,6.89
2023-10-07T04:24:45.847Z,6.94
2023-10-07T04:27:20.488Z,7.00
2023-10-07T04:29:53.918Z,7.07
2023-10-07T04:32:23.677Z,7.11
2023-10-07T04:35:17.827Z,7.18
2023-10-07T04:37:56.277Z,7.28
2023-10-07T04:40:25.859Z,7.36
2023-10-07T04:43:20.939Z,7.39
2023-10-07T04:45:50.759Z,7.42
2023-10-07T04:48:27.270Z,7.43
2023-10-07T04:51:05.765Z,7.49
2023-10-07T04:53:41.113Z,7.56
2023-10-07T04:56:22.007Z,7.64
2023-10-07T04:58:52.654Z,7.71
2023-10-07T05:01:35.872Z,7.78
2023-10-07T05:04:11.182Z,7.81
2023-10-07T05:06:44.158Z,7.87
2023-10-07T05:09:19.618Z,7.92
2023-10-07T05:11:50.710Z,7.99
2023-10-07T05:14:22.366Z,8.01
2023-10-07T05:16:53.335Z,8.06
2023-10-07T05:19:24.215Z,8.12
2023-10-07T05:22:14.140Z,8.19
2023-10-07T05:24:47.993Z,8.29
2023-10-07T05:27:18.711Z,8.39
2023-10-07T05:29:48.064Z,8.51
2023-10-07T05:32:20.279Z,8.59
2023-10-07T05:34:49.957Z,8.66
2023-10-07T05:37:19.632Z,8.74
2023-10-07T05:39:48.807Z,8.81
2023-10-07T05:42:18.002Z,8.83
2023-10-07T05:44:47.706Z,8.89
2023-10-07T05:47:17.831Z,8.91
2023-10-07T05:49:47.317Z,8.93
2023-10-07T05:52:19.669Z,8.93
2023-10-07T05:54:48.884Z,8.92
2023-10-07T05:57:19.191Z,8.95
2023-10-07T05:59:48.458Z,8.99
2023-10-07T06:02:17.970Z,9.01
2023-10-07T06:04:47.866Z,9.14
2023-10-07T06:07:20.562Z,9.33
2023-10-07T06:09:49.748Z,9.57
2023-10-07T06:12:19.453Z,9.75
2023-10-07T06:14:48.643Z,9.93
2023-10-07T06:17:17.929Z,10.06
2023-10-07T06:19:47.196Z,10.25
2023-10-07T06:22:17.362Z,10.48
2023-10-07T06:24:52.164Z,10.72
2023-10-07T06:27:23.296Z,10.94
2023-10-07T06:29:52.578Z,11.13
2023-10-07T06:32:24.872Z,11.35
2023-10-07T06:34:56.479Z,11.53
2023-10-07T06:37:31.832Z,11.67
2023-10-07T06:40:13.862Z,11.77
2023-10-07T06:42:43.060Z,11.92
2023-10-07T06:45:19.138Z,12.12
2023-10-07T06:47:49.758Z,12.30
2023-10-07T06:50:21.418Z,12.38
2023-10-07T06:52:51.031Z,12.45
2023-10-07T06:55:20.245Z,12.57
2023-10-07T06:57:49.556Z,12.75
2023-10-07T07:00:38.753Z,12.85
2023-10-07T07:03:11.634Z,12.91
2023-10-07T07:05:41.660Z,13.02
2023-10-07T07:08:12.172Z,13.12
2023-10-07T07:10:43.034Z,13.18
2023-10-07T07:13:16.870Z,13.24
2023-10-07T07:15:59.071Z,13.30
2023-10-07T07:18:28.409Z,13.35
2023-10-07T07:21:15.647Z,13.35
2023-10-07T07:23:50.650Z,13.35
2023-10-07T07:26:22.135Z,13.40
2023-10-07T07:28:56.343Z,13.49
2023-10-07T07:31:34.513Z,13.59
2023-10-07T07:34:22.738Z,13.66
2023-10-07T07:37:00.853Z,13.65
2023-10-07T07:39:33.465Z,13.64
2023-10-07T07:42:24.006Z,13.55
2023-10-07T07:44:59.002Z,13.43
2023-10-07T07:47:34.974Z,13.40
2023-10-07T07:50:08.514Z,13.39
2023-10-07T07:52:38.758Z,13.37
2023-10-07T07:55:08.575Z,13.40
2023-10-07T07:57:37.882Z,13.43
2023-10-07T08:00:10.614Z,13.45
2023-10-07T08:02:43.094Z,13.54
2023-10-07T08:05:14.386Z,13.65
2023-10-07T08:07:44.994Z,13.71
2023-10-07T08:10:14.499Z,13.83
2023-10-07T08:12:43.715Z,13.89
2023-10-07T08:15:15.577Z,13.99
2023-10-07T08:17:47.853Z,14.12
2023-10-07T08:20:17.754Z,14.22
2023-10-07T08:22:47.287Z,14.33
2023-10-07T08:25:49.071Z,14.42
2023-10-07T08:28:25.049Z,14.46
2023-10-07T08:30:54.639Z,14.51
2023-10-07T08:33:24.742Z,14.57
2023-10-07T08:35:54.110Z,14.61
2023-10-07T08:38:39.142Z,14.62
2023-10-07T08:41:11.674Z,14.62
2023-10-07T08:44:01.706Z,14.62
2023-10-07T08:46:34.527Z,14.60
2023-10-07T08:49:12.531Z,14.59
2023-10-07T08:51:44.027Z,14.66
2023-10-07T08:54:18.736Z,14.65
2023-10-07T08:56:56.373Z,14.68
2023-10-07T08:59:31.846Z,14.80
2023-10-07T09:02:02.143Z,14.96
2023-10-07T09:04:34.574Z,15.23
2023-10-07T09:07:10.443Z,15.42
2023-10-07T09:09:40.956Z,15.58
2023-10-07T09:12:29.763Z,15.71
2023-10-07T09:15:08.480Z,15.79
2023-10-07T09:17:42.695Z,15.88
2023-10-07T09:20:31.432Z,15.91
2023-10-07T09:23:21.768Z,16.03
2023-10-07T09:25:53.282Z,16.26
2023-10-07T09:28:37.087Z,16.49
2023-10-07T09:31:07.915Z,16.77
2023-10-07T09:33:39.029Z,17.06
2023-10-07T09:36:27.398Z,17.31
2023-10-07T09:39:14.814Z,17.58
2023-10-07T09:41:47.013Z,17.90
2023-10-07T09:44:27.744Z,18.21
2023-10-07T09:46:58.002Z,18.46
2023-10-07T09:49:27.436Z,18.77
2023-10-07T09:52:18.068Z,19.08
2023-10-07T09:55:24.079Z,19.38
2023-10-07T09:58:37.982Z,19.73
2023-10-07T10:01:34.108Z,20.07
2023-10-07T10:04:23.716Z,20.26
2023-10-07T10:07:14.126Z,20.32
2023-10-07T10:10:01.940Z,20.40
2023-10-07T10:13:11.058Z,20.30
2023-10-07T10:15:40.372Z,20.17
2023-10-07T10:18:28.263Z,20.13
2023-10-07T10:21:10.918Z,20.11
2023-10-07T10:23:42.765Z,20.23
2023-10-07T10:26:16.985Z,20.49
2023-10-07T10:29:17.348Z,20.77
2023-10-07T10:32:00.168Z,21.01
2023-10-07T10:34:30.279Z,21.35
2023-10-07T10:37:00.088Z,21.69
2023-10-07T10:39:41.189Z,22.02
2023-10-07T10:42:15.748Z,22.33
2023-10-07T10:44:50.099Z,22.45
2023-10-07T10:47:20.400Z,22.50
2023-10-07T10:49:56.382Z,22.37
2023-10-07T10:52:25.879Z,22.31
2023-10-07T10:54:55.650Z,22.15
2023-10-07T10:57:25.415Z,22.06
2023-10-07T10:59:55.282Z,21.93
2023-10-07T11:02:26.315Z,21.85
2023-10-07T11:04:57.076Z,21.81
2023-10-07T11:07:26.533Z,21.91
2023-10-07T11:09:55.974Z,22.07
2023-10-07T11:12:28.621Z,22.17
2023-10-07T11:15:14.374Z,22.18
2023-10-07T11:17:59.643Z,22.21
2023-10-07T11:20:35.343Z,22.20
2023-10-07T11:23:07.499Z,22.16
2023-10-07T11:25:37.387Z,22.11
2023-10-07T11:28:16.659Z,22.06
2023-10-07T11:30:48.241Z,21.95
2023-10-07T11:33:19.106Z,21.86
2023-10-07T11:36:03.776Z,21.80
2023-10-07T11:38:34.510Z,21.81
2023-10-07T11:41:08.056Z,21.79
2023-10-07T11:43:50.409Z,21.75
2023-10-07T11:46:21.271Z,21.82
2023-10-07T11:48:51.338Z,21.94
2023-10-07T11:51:20.557Z,21.91
2023-10-07T11:53:50.905Z,21.92
2023-10-07T11:56:20.185Z,21.94
2023-10-07T11:58:50.600Z,21.86
2023-10-07T12:01:21.598Z,21.84
2023-10-07T12:03:51.209Z,21.87
2023-10-07T12:06:20.521Z,21.86
2023-10-07T12:08:49.809Z,21.82
2023-10-07T12:11:19.867Z,21.81
2023-10-07T12:13:49.226Z,21.82
2023-10-07T12:16:18.553Z,21.78
2023-10-07T12:18:49.952Z,21.73
2023-10-07T12:21:19.269Z,21.73
2023-10-07T12:23:48.458Z,21.72
2023-10-07T12:26:18.874Z,21.67
2023-10-07T12:28:51.161Z,21.66
2023-10-07T12:31:21.602Z,21.70
2023-10-07T12:33:52.029Z,21.72
2023-10-07T12:36:21.478Z,21.88
2023-10-07T12:38:50.717Z,21.97
2023-10-07T12:41:19.936Z,22.01
2023-10-07T12:43:49.256Z,22.07
2023-10-07T12:46:19.030Z,22.16
2023-10-07T12:48:48.612Z,22.25
2023-10-07T12:51:19.423Z,22.29
2023-10-07T12:53:48.987Z,22.33
2023-10-07T12:56:21.053Z,22.29
2023-10-07T12:58:50.329Z,22.26
2023-10-07T13:01:21.094Z,22.23
2023-10-07T13:03:53.542Z,22.18
2023-10-07T13:06:25.080Z,22.14
2023-10-07T13:08:55.239Z,22.09
2023-10-07T13:11:28.204Z,22.04
2023-10-07T13:13:58.614Z,22.04
2023-10-07T13:16:28.732Z,22.08
2023-10-07T13:18:57.932Z,22.43
2023-10-07T13:21:29.094Z,23.50
2023-10-07T13:23:58.391Z,25.49
2023-10-07T13:26:28.284Z,27.53
2023-10-07T13:28:57.775Z,29.48
2023-10-07T13:31:28.973Z,30.75
2023-10-07T13:33:58.282Z,32.40
2023-10-07T13:36:28.118Z,32.18
2023-10-07T13:38:58.366Z,29.91
2023-10-07T13:41:28.994Z,28.10
2023-10-07T13:43:58.316Z,26.84
2023-10-07T13:46:31.307Z,25.89
2023-10-07T13:49:00.582Z,25.20
2023-10-07T13:51:32.504Z,24.71
2023-10-07T13:54:20.008Z,24.16
2023-10-07T13:56:59.024Z,23.75
2023-10-07T13:59:29.772Z,23.42
2023-10-07T14:02:01.732Z,23.16
2023-10-07T14:04:33.810Z,22.94
2023-10-07T14:07:06.305Z,22.81
2023-10-07T14:09:39.302Z,22.81
2023-10-07T14:12:10.980Z,22.93
2023-10-07T14:14:40.297Z,23.10
2023-10-07T14:17:10.297Z,23.22
2023-10-07T14:19:41.361Z,23.26
2023-10-07T14:22:11.210Z,23.26
2023-10-07T14:24:45.532Z,23.25
2023-10-07T14:27:15.019Z,23.20
2023-10-07T14:29:45.037Z,23.18
2023-10-07T14:32:14.485Z,23.12
2023-10-07T14:34:43.712Z,23.12
2023-10-07T14:37:13.116Z,23.08
2023-10-07T14:39:46.316Z,22.98
2023-10-07T14:42:23.193Z,22.92
2023-10-07T14:44:52.666Z,22.88
2023-10-07T14:47:22.738Z,22.93
2023-10-07T14:49:55.646Z,22.96
2023-10-07T14:52:25.029Z,22.83
2023-10-07T14:54:55.745Z,22.67
2023-10-07T14:57:25.111Z,22.46
2023-10-07T14:59:54.356Z,22.30
2023-10-07T15:02:24.389Z,22.21
2023-10-07T15:04:53.747Z,22.09
2023-10-07T15:07:23.154Z,21.98
2023-10-07T15:09:53.541Z,21.87
2023-10-07T15:12:22.860Z,21.79
2023-10-07T15:14:52.115Z,21.78
2023-10-07T15:17:21.335Z,21.73
2023-10-07T15:19:53.665Z,21.64
2023-10-07T15:22:23.456Z,21.51
2023-10-07T15:24:52.696Z,21.39
2023-10-07T15:27:22.450Z,21.31
2023-10-07T15:29:51.618Z,21.19
2023-10-07T15:32:20.792Z,21.09
2023-10-07T15:34:50.434Z,20.99
2023-10-07T15:37:19.655Z,20.92
2023-10-07T15:39:48.867Z,20.83
2023-10-07T15:42:19.105Z,20.75
2023-10-07T15:44:48.889Z,20.62
2023-10-07T15:47:19.845Z,20.51
2023-10-07T15:49:52.669Z,20.32
2023-10-07T15:52:22.106Z,20.20
2023-10-07T15:54:56.123Z,20.06
2023-10-07T15:57:25.823Z,19.91
2023-10-07T15:59:55.170Z,19.73
2023-10-07T16:02:25.943Z,19.59
2023-10-07T16:04:55.326Z,19.43
2023-10-07T16:07:26.296Z,19.24
2023-10-07T16:09:55.496Z,19.11
2023-10-07T16:12:28.228Z,18.98
2023-10-07T16:14:59.042Z,18.85
2023-10-07T16:17:28.531Z,18.70
2023-10-07T16:19:58.021Z,18.54
2023-10-07T16:22:27.339Z,18.43
2023-10-07T16:24:56.591Z,18.30
2023-10-07T16:27:25.947Z,18.28
2023-10-07T16:29:56.029Z,18.23
2023-10-07T16:32:25.272Z,18.18
2023-10-07T16:34:54.611Z,18.20
2023-10-07T16:37:25.120Z,18.22
2023-10-07T16:39:54.657Z,18.24
2023-10-07T16:42:24.411Z,18.28
2023-10-07T16:44:54.622Z,18.31
2023-10-07T16:47:24.716Z,18.30
2023-10-07T16:49:54.615Z,18.32
2023-10-07T16:52:24.086Z,18.29
2023-10-07T16:54:53.304Z,18.20
2023-10-07T16:57:25.662Z,18.16
2023-10-07T16:59:55.078Z,18.08
2023-10-07T17:02:24.444Z,18.07
2023-10-07T17:04:57.601Z,18.07
2023-10-07T17:07:27.204Z,18.05
2023-10-07T17:09:57.836Z,18.00
2023-10-07T17:12:28.717Z,18.01
2023-10-07T17:14:58.052Z,18.00
2023-10-07T17:17:27.477Z,17.96
2023-10-07T17:19:57.324Z,18.00
2023-10-07T17:22:26.608Z,17.98
2023-10-07T17:24:56.040Z,18.02
2023-10-07T17:27:25.332Z,18.03
2023-10-07T17:29:56.077Z,18.02
2023-10-07T17:32:26.193Z,18.00
2023-10-07T17:34:56.124Z,17.94
2023-10-07T17:37:26.102Z,17.82
2023-10-07T17:40:01.048Z,17.69
2023-10-07T17:42:31.275Z,17.55
2023-10-07T17:45:01.241Z,17.44
2023-10-07T17:47:31.709Z,17.34
2023-10-07T17:50:01.706Z,17.24
2023-10-07T17:52:34.844Z,17.15
2023-10-07T17:55:06.088Z,17.09
2023-10-07T17:57:37.508Z,17.08
2023-10-07T18:00:11.212Z,17.14
2023-10-07T18:02:44.883Z,17.25
2023-10-07T18:05:14.592Z,17.37
2023-10-07T18:07:49.553Z,17.44
2023-10-07T18:10:25.099Z,17.47
2023-10-07T18:12:55.164Z,17.48
2023-10-07T18:15:24.762Z,17.58
2023-10-07T18:17:55.105Z,17.65
2023-10-07T18:20:24.402Z,17.67
2023-10-07T18:22:55.567Z,17.73
2023-10-07T18:25:25.207Z,17.81
2023-10-07T18:27:54.536Z,17.90
2023-10-07T18:30:24.052Z,18.00
2023-10-07T18:32:53.673Z,18.06
2023-10-07T18:35:23.124Z,18.17
2023-10-07T18:37:56.016Z,18.25
2023-10-07T18:40:26.307Z,18.22
2023-10-07T18:42:56.294Z,18.11
2023-10-07T18:45:26.074Z,18.03
2023-10-07T18:47:56.399Z,18.05
2023-10-07T18:50:25.873Z,18.04
2023-10-07T18:52:55.481Z,18.10
2023-10-07T18:55:25.027Z,18.17
2023-10-07T18:57:54.286Z,18.23
2023-10-07T19:00:24.600Z,18.24
2023-10-07T19:02:53.920Z,18.26
2023-10-07T19:05:24.250Z,18.37
2023-10-07T19:07:55.537Z,18.38
2023-10-07T19:10:26.652Z,18.41
2023-10-07T19:12:56.446Z,18.48
2023-10-07T19:15:26.165Z,18.57
2023-10-07T19:17:56.070Z,18.68
2023-10-07T19:20:25.951Z,18.77
2023-10-07T19:22:55.524Z,18.85
2023-10-07T19:25:25.682Z,18.87
2023-10-07T19:27:55.538Z,18.87
2023-10-07T19:30:25.325Z,18.85
2023-10-07T19:32:54.691Z,18.89
2023-10-07T19:35:24.593Z,18.85
2023-10-07T19:37:54.412Z,18.81
2023-10-07T19:40:23.782Z,18.81
2023-10-07T19:42:53.587Z,18.79
2023-10-07T19:45:23.320Z,18.73
2023-10-07T19:47:53.142Z,18.66
2023-10-07T19:50:23.023Z,18.65
2023-10-07T19:52:52.488Z,18.70
2023-10-07T19:55:22.425Z,18.66
2023-10-07T19:57:52.209Z,18.69
2023-10-07T20:00:21.481Z,18.72
2023-10-07T20:02:54.401Z,18.75
2023-10-07T20:05:23.817Z,18.79
2023-10-07T20:07:55.394Z,18.74
2023-10-07T20:10:27.309Z,18.71
2023-10-07T20:12:57.134Z,18.78
2023-10-07T20:15:29.391Z,18.89
2023-10-07T20:17:58.854Z,18.93
2023-10-07T20:20:28.267Z,18.94
2023-10-07T20:22:57.590Z,18.91
2023-10-07T20:25:27.557Z,18.93
2023-10-07T20:27:56.939Z,18.95
2023-10-07T20:30:26.119Z,18.99
2023-10-07T20:32:57.345Z,19.01
2023-10-07T20:35:26.847Z,18.96
2023-10-07T20:37:56.729Z,18.85
2023-10-07T20:40:26.498Z,18.80
2023-10-07T20:42:55.996Z,18.77
2023-10-07T20:45:25.218Z,18.77
2023-10-07T20:47:54.508Z,18.73
2023-10-07T20:50:23.874Z,18.70
2023-10-07T20:52:53.059Z,18.60
2023-10-07T20:55:23.331Z,18.58
2023-10-07T20:57:53.312Z,18.58
2023-10-07T21:00:23.663Z,18.54
2023-10-07T21:02:53.072Z,18.49
2023-10-07T21:05:28.181Z,18.44
2023-10-07T21:07:57.696Z,18.32
2023-10-07T21:10:26.911Z,18.28
2023-10-07T21:12:56.056Z,18.26
2023-10-07T21:15:33.727Z,18.21
2023-10-07T21:18:05.481Z,18.12
2023-10-07T21:20:40.715Z,18.05
2023-10-07T21:23:15.030Z,17.94
2023-10-07T21:25:47.665Z,17.86
2023-10-07T21:28:18.975Z,17.83
2023-10-07T21:30:49.710Z,17.80
2023-10-07T21:33:20.725Z,17.74
2023-10-07T21:35:50.100Z,17.67
2023-10-07T21:38:19.398Z,17.62
2023-10-07T21:40:48.620Z,17.61
2023-10-07T21:43:17.921Z,17.60
2023-10-07T21:45:52.743Z,17.66
2023-10-07T21:48:22.223Z,17.67
2023-10-07T21:50:51.521Z,17.70
2023-10-07T21:53:20.975Z,17.71
2023-10-07T21:55:50.175Z,17.74
2023-10-07T21:58:19.941Z,17.74
2023-10-07T22:00:58.246Z,17.80
2023-10-07T22:03:28.285Z,17.88
2023-10-07T22:05:57.672Z,17.93
2023-10-07T22:08:26.939Z,17.99
2023-10-07T22:10:56.189Z,18.06
2023-10-07T22:13:28.052Z,18.13
2023-10-07T22:15:58.627Z,18.16
2023-10-07T22:18:28.293Z,18.19
2023-10-07T22:20:59.054Z,18.20
2023-10-07T22:23:28.435Z,18.19
2023-10-07T22:25:58.398Z,18.15
2023-10-07T22:28:27.907Z,18.13
2023-10-07T22:30:57.258Z,18.17
2023-10-07T22:33:26.865Z,18.17
2023-10-07T22:36:00.935Z,18.20
2023-10-07T22:38:34.124Z,18.23
2023-10-07T22:41:07.265Z,18.23
2023-10-07T22:43:39.985Z,18.19
2023-10-07T22:46:09.566Z,18.16
2023-10-07T22:48:40.731Z,18.14
2023-10-07T22:51:10.460Z,18.16
2023-10-07T22:53:45.607Z,18.18
2023-10-07T22:56:20.933Z,18.18
2023-10-07T22:58:51.745Z,18.19
2023-10-07T23:01:44.596Z,18.18
2023-10-07T23:04:21.548Z,18.18
2023-10-07T23:07:14.129Z,18.18
2023-10-07T23:09:50.068Z,18.13
2023-10-07T23:12:40.062Z,18.12
2023-10-07T23:15:15.290Z,18.03
2023-10-07T23:17:52.752Z,17.97
2023-10-07T23:20:38.769Z,17.87
2023-10-07T23:23:14.409Z,17.81
2023-10-07T23:25:58.626Z,17.72
2023-10-07T23:28:33.586Z,17.69
2023-10-07T23:31:25.922Z,17.71
2023-10-07T23:33:55.568Z,17.78
2023-10-07T23:36:25.250Z,17.80
2023-10-07T23:38:59.644Z,17.83
2023-10-07T23:41:32.323Z,17.81
2023-10-07T23:44:01.530Z,17.80
2023-10-07T23:46:33.038Z,17.82
2023-10-07T23:49:13.367Z,17.82
2023-10-07T23:51:46.476Z,17.84
2023-10-07T23:54:15.910Z,17.84
2023-10-07T23:56:50.659Z,17.84
2023-10-07T23:59:25.581Z,17.83
